createdAt,value
2022-08-03T00:01:54.502Z,21.60
2022-08-03T00:04:22.559Z,21.50
2022-08-03T00:07:03.536Z,21.00
2022-08-03T00:09:35.491Z,20.90
2022-08-03T00:12:05.030Z,21.10
2022-08-03T00:14:32.994Z,21.10
2022-08-03T00:17:01.054Z,21.20
2022-08-03T00:19:29.134Z,21.20
2022-08-03T00:21:57.157Z,21.00
2022-08-03T00:24:26.723Z,21.00
2022-08-03T00:26:54.706Z,20.90
2022-08-03T00:29:22.687Z,20.70
2022-08-03T00:31:59.409Z,20.60
2022-08-03T00:34:36.652Z,20.60
2022-08-03T00:37:16.618Z,20.60
2022-08-03T00:39:48.078Z,20.40
2022-08-03T00:42:16.980Z,20.20
2022-08-03T00:44:46.047Z,20.20
2022-08-03T00:47:15.981Z,20.10
2022-08-03T00:49:44.334Z,20.20
2022-08-03T00:52:13.285Z,20.20
2022-08-03T00:54:41.373Z,20.20
2022-08-03T00:57:10.717Z,20.20
2022-08-03T00:59:39.807Z,20.20
2022-08-03T01:02:07.801Z,20.20
2022-08-03T01:04:37.471Z,20.30
2022-08-03T01:07:10.872Z,20.20
2022-08-03T01:09:47.545Z,20.60
2022-08-03T01:12:22.305Z,20.40
2022-08-03T01:14:56.967Z,20.20
2022-08-03T01:17:30.436Z,20.10
2022-08-03T01:20:03.025Z,20.20
2022-08-03T01:23:02.425Z,20.10
2022-08-03T01:25:41.291Z,19.90
2022-08-03T01:28:26.371Z,19.90
2022-08-03T01:30:59.942Z,20.00
2022-08-03T01:33:37.342Z,19.90
2022-08-03T01:36:08.761Z,20.00
2022-08-03T01:38:43.058Z,19.80
2022-08-03T01:41:25.819Z,19.70
2022-08-03T01:44:29.112Z,19.70
2022-08-03T01:46:49.179Z,19.40
2022-08-03T01:49:18.712Z,19.60
2022-08-03T01:52:03.352Z,19.70
2022-08-03T01:54:44.189Z,19.60
2022-08-03T01:57:12.605Z,19.40
2022-08-03T01:59:42.328Z,19.40
2022-08-03T02:02:31.797Z,19.40
2022-08-03T02:05:04.249Z,19.50
2022-08-03T02:07:35.106Z,19.60
2022-08-03T02:10:06.970Z,19.50
2022-08-03T02:12:39.575Z,19.50
2022-08-03T02:15:08.982Z,19.50
2022-08-03T02:17:40.755Z,19.40
2022-08-03T02:20:12.086Z,19.30
2022-08-03T02:22:42.486Z,19.20
2022-08-03T02:25:16.130Z,19.20
2022-08-03T02:27:52.140Z,19.10
2022-08-03T02:30:21.425Z,19.20
2022-08-03T02:32:56.427Z,19.30
2022-08-03T02:35:26.290Z,19.30
2022-08-03T02:38:03.838Z,19.20
2022-08-03T02:40:34.152Z,19.30
2022-08-03T02:43:08.556Z,19.20
2022-08-03T02:45:45.494Z,19.00
2022-08-03T02:48:18.932Z,19.00
2022-08-03T02:50:48.658Z,19.10
2022-08-03T02:53:18.988Z,19.10
2022-08-03T02:55:52.125Z,19.40
2022-08-03T02:58:24.014Z,19.20
2022-08-03T03:00:53.203Z,19.10
2022-08-03T03:03:23.741Z,19.10
2022-08-03T03:05:57.531Z,19.10
2022-08-03T03:08:28.293Z,19.20
2022-08-03T03:10:59.314Z,19.10
2022-08-03T03:13:29.336Z,19.00
2022-08-03T03:16:04.220Z,18.70
2022-08-03T03:18:35.249Z,18.80
2022-08-03T03:21:05.282Z,18.80
2022-08-03T03:23:36.899Z,18.60
2022-08-03T03:26:05.527Z,18.50
2022-08-03T03:28:34.035Z,18.40
2022-08-03T03:31:02.582Z,18.30
2022-08-03T03:33:31.115Z,18.40
2022-08-03T03:36:00.971Z,18.30
2022-08-03T03:38:29.170Z,18.40
2022-08-03T03:40:57.402Z,18.40
2022-08-03T03:43:25.696Z,18.50
2022-08-03T03:45:53.986Z,18.30
2022-08-03T03:48:25.221Z,18.10
2022-08-03T03:50:53.855Z,18.10
2022-08-03T03:53:23.244Z,18.10
2022-08-03T03:55:59.718Z,18.20
2022-08-03T03:58:32.038Z,18.20
2022-08-03T04:01:00.394Z,18.20
2022-08-03T04:03:28.710Z,18.20
2022-08-03T04:06:14.249Z,18.30
2022-08-03T04:09:01.084Z,18.10
2022-08-03T04:11:33.234Z,18.20
2022-08-03T04:14:06.235Z,18.20
2022-08-03T04:16:43.175Z,18.10
2022-08-03T04:19:17.499Z,18.00
2022-08-03T04:21:53.088Z,18.00
2022-08-03T04:24:29.750Z,18.20
2022-08-03T04:27:03.178Z,18.10
2022-08-03T04:29:36.031Z,18.10
2022-08-03T04:32:07.690Z,18.20
2022-08-03T04:34:36.835Z,18.20
2022-08-03T04:37:11.943Z,18.20
2022-08-03T04:39:43.912Z,18.20
2022-08-03T04:42:13.758Z,18.30
2022-08-03T04:44:43.625Z,18.40
2022-08-03T04:47:13.524Z,18.30
2022-08-03T04:49:41.709Z,18.40
2022-08-03T04:52:10.855Z,18.50
2022-08-03T04:54:50.585Z,18.50
2022-08-03T04:57:22.822Z,18.60
2022-08-03T04:59:58.238Z,18.60
2022-08-03T05:02:30.572Z,18.80
2022-08-03T05:04:58.827Z,19.00
2022-08-03T05:07:35.498Z,19.00
2022-08-03T05:10:11.702Z,19.20
2022-08-03T05:12:44.692Z,19.30
2022-08-03T05:15:13.488Z,19.20
2022-08-03T05:17:41.860Z,19.30
2022-08-03T05:20:11.400Z,19.40
2022-08-03T05:22:39.533Z,19.60
2022-08-03T05:25:09.481Z,19.80
2022-08-03T05:27:47.268Z,19.90
2022-08-03T05:30:27.246Z,19.90
2022-08-03T05:33:02.725Z,19.90
2022-08-03T05:36:01.894Z,20.00
2022-08-03T05:38:24.049Z,20.20
2022-08-03T05:41:21.924Z,20.10
2022-08-03T05:43:47.167Z,20.20
2022-08-03T05:46:15.755Z,20.20
2022-08-03T05:48:43.768Z,20.20
2022-08-03T05:51:12.443Z,20.20
2022-08-03T05:53:41.045Z,20.20
2022-08-03T05:56:13.834Z,20.40
2022-08-03T05:58:44.391Z,20.40
2022-08-03T06:01:12.559Z,20.50
2022-08-03T06:03:40.652Z,20.50
2022-08-03T06:06:08.711Z,20.60
2022-08-03T06:08:36.724Z,20.80
2022-08-03T06:11:05.094Z,20.90
2022-08-03T06:13:34.699Z,20.90
2022-08-03T06:16:02.979Z,20.90
2022-08-03T06:18:31.116Z,20.90
2022-08-03T06:21:09.534Z,21.00
2022-08-03T06:23:54.076Z,21.10
2022-08-03T06:26:24.987Z,21.10
2022-08-03T06:28:55.050Z,21.30
2022-08-03T06:31:33.239Z,21.40
2022-08-03T06:34:32.802Z,21.50
2022-08-03T06:36:58.623Z,21.60
2022-08-03T06:39:30.085Z,21.70
2022-08-03T06:41:58.157Z,21.70
2022-08-03T06:44:27.518Z,21.90
2022-08-03T06:46:55.788Z,21.90
2022-08-03T06:49:23.924Z,22.00
2022-08-03T06:52:05.134Z,22.10
2022-08-03T06:54:35.979Z,21.90
2022-08-03T06:57:04.649Z,22.10
2022-08-03T07:00:06.199Z,22.20
2022-08-03T07:02:22.128Z,22.30
2022-08-03T07:04:50.226Z,22.50
2022-08-03T07:07:19.290Z,22.50
2022-08-03T07:09:56.339Z,22.60
2022-08-03T07:12:26.166Z,22.90
2022-08-03T07:14:59.988Z,22.90
2022-08-03T07:17:30.035Z,23.00
2022-08-03T07:19:58.182Z,23.00
2022-08-03T07:22:26.298Z,23.10
2022-08-03T07:24:54.355Z,23.30
2022-08-03T07:27:22.778Z,23.30
2022-08-03T07:29:50.907Z,23.30
2022-08-03T07:32:20.353Z,23.40
2022-08-03T07:34:48.343Z,23.60
2022-08-03T07:37:16.482Z,23.70
2022-08-03T07:39:44.673Z,23.70
2022-08-03T07:42:12.780Z,23.70
2022-08-03T07:44:40.908Z,23.90
2022-08-03T07:47:09.276Z,24.00
2022-08-03T07:49:42.454Z,24.10
2022-08-03T07:52:28.572Z,24.30
2022-08-03T07:54:56.626Z,24.40
2022-08-03T07:57:24.668Z,24.50
2022-08-03T08:00:01.519Z,24.60
2022-08-03T08:02:30.605Z,24.60
2022-08-03T08:05:04.970Z,24.70
2022-08-03T08:07:33.715Z,24.70
2022-08-03T08:10:01.715Z,24.80
2022-08-03T08:12:29.968Z,24.90
2022-08-03T08:14:57.962Z,25.00
2022-08-03T08:17:26.021Z,25.00
2022-08-03T08:19:54.172Z,25.10
2022-08-03T08:22:30.489Z,25.20
2022-08-03T08:24:59.595Z,25.30
2022-08-03T08:28:30.527Z,25.30
2022-08-03T08:30:21.206Z,25.30
2022-08-03T08:32:50.033Z,25.40
2022-08-03T08:35:18.725Z,25.60
2022-08-03T08:37:50.950Z,25.80
2022-08-03T08:40:22.952Z,26.00
2022-08-03T08:42:58.502Z,26.20
2022-08-03T08:45:27.891Z,26.00
2022-08-03T08:48:01.102Z,26.00
2022-08-03T08:50:31.953Z,26.20
2022-08-03T08:53:03.959Z,26.40
2022-08-03T08:55:58.852Z,26.60
2022-08-03T08:58:23.258Z,26.80
2022-08-03T09:00:52.448Z,26.90
2022-08-03T09:03:22.561Z,27.00
2022-08-03T09:05:58.000Z,27.00
2022-08-03T09:08:27.536Z,26.80
2022-08-03T09:10:55.681Z,26.80
2022-08-03T09:13:23.902Z,27.00
2022-08-03T09:16:10.926Z,27.10
2022-08-03T09:18:39.650Z,27.40
2022-08-03T09:21:34.269Z,27.60
2022-08-03T09:24:07.133Z,27.60
2022-08-03T09:26:39.593Z,27.50
2022-08-03T09:29:14.388Z,27.50
2022-08-03T09:31:45.377Z,27.60
2022-08-03T09:34:14.900Z,27.60
2022-08-03T09:36:44.884Z,27.90
2022-08-03T09:39:16.355Z,27.80
2022-08-03T09:41:46.225Z,27.80
2022-08-03T09:44:24.187Z,28.10
2022-08-03T09:46:55.563Z,28.10
2022-08-03T09:49:24.246Z,28.70
2022-08-03T09:52:31.951Z,28.40
2022-08-03T09:54:42.831Z,28.60
2022-08-03T09:57:22.718Z,28.60
2022-08-03T09:59:53.942Z,28.70
2022-08-03T10:02:31.320Z,28.60
2022-08-03T10:05:08.301Z,28.70
2022-08-03T10:07:46.167Z,28.80
2022-08-03T10:10:30.971Z,29.30
2022-08-03T10:13:01.900Z,29.20
2022-08-03T10:16:21.711Z,29.00
2022-08-03T10:18:19.000Z,29.10
2022-08-03T10:20:50.869Z,29.10
2022-08-03T10:23:19.714Z,29.30
2022-08-03T10:25:53.936Z,29.10
2022-08-03T10:28:23.043Z,28.90
2022-08-03T10:30:54.503Z,29.10
2022-08-03T10:33:51.389Z,29.30
2022-08-03T10:36:16.372Z,29.30
2022-08-03T10:38:52.427Z,29.20
2022-08-03T10:41:23.761Z,29.40
2022-08-03T10:43:56.664Z,29.80
2022-08-03T10:46:24.946Z,29.60
2022-08-03T10:48:53.893Z,29.60
2022-08-03T10:51:22.543Z,29.50
2022-08-03T10:53:54.788Z,29.50
2022-08-03T10:57:04.150Z,29.90
2022-08-03T11:00:07.418Z,30.30
2022-08-03T11:03:08.569Z,30.10
2022-08-03T11:05:38.832Z,30.20
2022-08-03T11:08:28.074Z,30.30
2022-08-03T11:10:58.670Z,30.20
2022-08-03T11:13:31.691Z,29.70
2022-08-03T11:16:06.533Z,29.90
2022-08-03T11:18:35.913Z,30.00
2022-08-03T11:21:04.113Z,29.80
2022-08-03T11:24:04.965Z,29.80
2022-08-03T11:26:34.379Z,30.50
2022-08-03T11:29:29.772Z,30.70
2022-08-03T11:31:58.230Z,30.90
2022-08-03T11:34:26.615Z,31.00
2022-08-03T11:37:20.450Z,31.20
2022-08-03T11:39:50.057Z,31.20
2022-08-03T11:42:43.969Z,31.40
2022-08-03T11:45:14.983Z,31.50
2022-08-03T11:47:50.527Z,31.20
2022-08-03T11:50:21.419Z,31.40
2022-08-03T11:52:50.861Z,31.80
2022-08-03T11:55:21.620Z,31.60
2022-08-03T11:59:17.367Z,31.90
2022-08-03T12:00:40.630Z,31.80
2022-08-03T12:03:11.266Z,31.80
2022-08-03T12:05:42.341Z,31.70
2022-08-03T12:08:31.038Z,31.70
2022-08-03T12:11:01.278Z,31.60
2022-08-03T12:14:27.078Z,31.40
2022-08-03T12:16:29.710Z,31.70
2022-08-03T12:18:59.808Z,31.50
2022-08-03T12:21:28.190Z,31.80
2022-08-03T12:24:00.500Z,32.40
2022-08-03T12:26:29.814Z,32.60
2022-08-03T12:28:58.544Z,32.60
2022-08-03T12:31:28.086Z,32.10
2022-08-03T12:33:58.922Z,32.10
2022-08-03T12:36:29.425Z,31.80
2022-08-03T12:38:59.666Z,32.60
2022-08-03T12:41:34.259Z,33.30
2022-08-03T12:44:04.092Z,33.20
2022-08-03T12:46:35.528Z,33.30
2022-08-03T12:49:08.172Z,33.10
2022-08-03T12:51:38.467Z,33.20
2022-08-03T12:54:07.366Z,33.40
2022-08-03T12:56:35.908Z,33.10
2022-08-03T12:59:24.860Z,32.60
2022-08-03T13:02:02.163Z,32.70
2022-08-03T13:04:34.512Z,33.10
2022-08-03T13:07:04.524Z,32.70
2022-08-03T13:09:43.445Z,33.20
2022-08-03T13:12:13.414Z,33.60
2022-08-03T13:14:42.544Z,33.70
2022-08-03T13:17:12.326Z,34.10
2022-08-03T13:19:41.689Z,33.80
2022-08-03T13:22:13.500Z,33.40
2022-08-03T13:24:42.203Z,33.30
2022-08-03T13:28:00.017Z,33.70
2022-08-03T13:29:59.109Z,33.90
2022-08-03T13:32:28.508Z,33.90
2022-08-03T13:34:56.507Z,34.10
2022-08-03T13:37:24.778Z,33.60
2022-08-03T13:39:59.385Z,33.60
2022-08-03T13:42:30.673Z,33.60
2022-08-03T13:44:59.157Z,33.60
2022-08-03T13:47:28.813Z,34.00
2022-08-03T13:50:01.486Z,33.70
2022-08-03T13:52:35.479Z,33.90
2022-08-03T13:55:05.762Z,34.20
2022-08-03T13:58:02.187Z,33.80
2022-08-03T14:00:27.966Z,33.80
2022-08-03T14:03:14.133Z,34.50
2022-08-03T14:05:43.261Z,34.30
2022-08-03T14:08:11.828Z,34.20
2022-08-03T14:10:41.495Z,33.70
2022-08-03T14:13:09.997Z,34.20
2022-08-03T14:15:38.770Z,34.20
2022-08-03T14:18:15.531Z,34.40
2022-08-03T14:20:48.941Z,34.30
2022-08-03T14:23:18.425Z,34.60
2022-08-03T14:25:51.948Z,34.90
2022-08-03T14:28:22.562Z,34.50
2022-08-03T14:30:51.308Z,34.40
2022-08-03T14:33:21.812Z,34.40
2022-08-03T14:35:50.624Z,34.50
2022-08-03T14:38:19.492Z,34.20
2022-08-03T14:40:48.199Z,34.40
2022-08-03T14:43:17.795Z,34.70
2022-08-03T14:45:45.771Z,35.30
2022-08-03T14:50:30.492Z,35.50
2022-08-03T14:51:05.388Z,35.60
2022-08-03T14:53:33.450Z,35.00
2022-08-03T14:56:04.157Z,34.90
2022-08-03T14:58:34.576Z,35.30
2022-08-03T15:01:03.005Z,35.50
2022-08-03T15:03:50.839Z,35.30
2022-08-03T15:06:20.266Z,35.00
2022-08-03T15:09:06.283Z,35.00
2022-08-03T15:11:38.584Z,35.00
2022-08-03T15:14:09.338Z,35.20
2022-08-03T15:16:38.180Z,35.40
2022-08-03T15:20:01.366Z,34.90
2022-08-03T15:21:56.000Z,35.00
2022-08-03T15:24:24.030Z,35.20
2022-08-03T15:26:53.164Z,35.10
2022-08-03T15:30:04.876Z,35.00
2022-08-03T15:32:09.815Z,35.00
2022-08-03T15:34:37.974Z,35.30
2022-08-03T15:37:16.211Z,35.60
2022-08-03T15:40:00.090Z,35.30
2022-08-03T15:42:29.593Z,35.40
2022-08-03T15:44:58.455Z,35.80
2022-08-03T15:47:31.777Z,36.00
2022-08-03T15:49:59.717Z,35.00
2022-08-03T15:52:29.147Z,35.10
2022-08-03T15:54:57.183Z,35.40
2022-08-03T15:57:25.202Z,35.40
2022-08-03T15:59:53.267Z,35.90
2022-08-03T16:02:21.342Z,35.70
2022-08-03T16:04:49.281Z,35.70
2022-08-03T16:07:37.387Z,35.80
2022-08-03T16:10:07.898Z,35.50
2022-08-03T16:12:35.971Z,35.60
2022-08-03T16:15:04.497Z,35.70
2022-08-03T16:17:32.468Z,35.90
2022-08-03T16:20:00.517Z,35.80
2022-08-03T16:22:28.597Z,35.80
2022-08-03T16:24:58.055Z,36.00
2022-08-03T16:27:56.582Z,35.70
2022-08-03T16:30:17.561Z,36.20
2022-08-03T16:32:46.113Z,35.70
2022-08-03T16:35:19.535Z,35.80
2022-08-03T16:37:56.673Z,36.00
2022-08-03T16:40:25.968Z,35.90
2022-08-03T16:42:55.415Z,36.00
2022-08-03T16:45:23.539Z,35.80
2022-08-03T16:48:05.556Z,36.10
2022-08-03T16:50:34.806Z,36.20
2022-08-03T16:53:06.361Z,35.60
2022-08-03T16:55:49.065Z,35.80
2022-08-03T16:58:34.288Z,36.50
2022-08-03T17:01:21.705Z,36.40
2022-08-03T17:04:03.674Z,36.80
2022-08-03T17:06:35.906Z,37.20
2022-08-03T17:09:08.882Z,37.20
2022-08-03T17:11:47.512Z,37.20
2022-08-03T17:14:21.928Z,37.20
2022-08-03T17:16:52.403Z,37.20
2022-08-03T17:19:24.154Z,37.70
2022-08-03T17:22:00.493Z,38.10
2022-08-03T17:24:33.120Z,38.30
2022-08-03T17:27:08.679Z,38.10
2022-08-03T17:29:44.939Z,37.90
2022-08-03T17:32:18.419Z,38.40
2022-08-03T17:34:49.997Z,38.20
2022-08-03T17:37:50.089Z,38.30
2022-08-03T17:40:17.295Z,38.30
2022-08-03T17:42:46.212Z,38.00
2022-08-03T17:45:21.353Z,38.10
2022-08-03T17:47:57.345Z,37.90
2022-08-03T17:50:42.843Z,37.90
2022-08-03T17:53:23.639Z,38.00
2022-08-03T17:56:04.886Z,38.00
2022-08-03T17:58:57.105Z,37.90
2022-08-03T18:02:00.809Z,35.80
2022-08-03T18:04:38.404Z,33.90
2022-08-03T18:07:12.540Z,33.20
2022-08-03T18:10:04.201Z,32.80
2022-08-03T18:12:45.345Z,32.40
2022-08-03T18:15:21.241Z,32.30
2022-08-03T18:17:58.392Z,32.10
2022-08-03T18:20:40.895Z,32.10
2022-08-03T18:23:25.366Z,32.00
2022-08-03T18:26:01.611Z,31.90
2022-08-03T18:28:30.174Z,31.70
2022-08-03T18:30:58.591Z,31.70
2022-08-03T18:34:19.854Z,31.50
2022-08-03T18:36:22.107Z,31.50
2022-08-03T18:38:59.656Z,31.50
2022-08-03T18:41:33.530Z,31.40
2022-08-03T18:44:06.687Z,31.20
2022-08-03T18:47:16.798Z,30.80
2022-08-03T18:49:57.212Z,30.50
2022-08-03T18:52:37.340Z,30.20
2022-08-03T18:55:20.555Z,30.10
2022-08-03T18:57:53.742Z,30.00
2022-08-03T19:00:24.916Z,29.90
2022-08-03T19:03:12.470Z,29.90
2022-08-03T19:06:02.768Z,29.70
2022-08-03T19:08:47.802Z,29.40
2022-08-03T19:11:27.924Z,29.30
2022-08-03T19:13:59.505Z,29.20
2022-08-03T19:19:24.691Z,29.10
2022-08-03T19:21:55.169Z,28.90
2022-08-03T19:24:26.006Z,28.80
2022-08-03T19:26:56.000Z,28.70
2022-08-03T19:29:25.140Z,28.60
2022-08-03T19:32:16.679Z,28.60
2022-08-03T19:34:46.608Z,29.00
2022-08-03T19:37:16.260Z,29.00
2022-08-03T19:39:45.154Z,28.60
2022-08-03T19:42:31.075Z,28.40
2022-08-03T19:45:11.212Z,28.10
2022-08-03T19:47:46.845Z,28.20
2022-08-03T19:50:33.190Z,28.00
2022-08-03T19:53:04.920Z,27.80
2022-08-03T19:55:36.608Z,27.70
2022-08-03T19:58:08.122Z,27.70
2022-08-03T20:00:48.585Z,27.70
2022-08-03T20:03:21.783Z,27.50
2022-08-03T20:05:52.321Z,27.60
2022-08-03T20:08:25.425Z,27.60
2022-08-03T20:10:54.199Z,27.80
2022-08-03T20:13:22.483Z,27.70
2022-08-03T20:15:56.436Z,27.50
2022-08-03T20:18:25.184Z,27.50
2022-08-03T20:20:55.611Z,27.30
2022-08-03T20:23:27.867Z,27.20
2022-08-03T20:26:06.649Z,26.90
2022-08-03T20:28:50.426Z,26.80
2022-08-03T20:31:21.630Z,26.90
2022-08-03T20:33:52.147Z,26.70
2022-08-03T20:36:20.751Z,26.90
2022-08-03T20:38:52.006Z,26.80
2022-08-03T20:41:20.406Z,26.60
2022-08-03T20:43:49.540Z,26.70
2022-08-03T20:46:32.821Z,26.70
2022-08-03T20:49:05.543Z,26.60
2022-08-03T20:51:52.918Z,26.40
2022-08-03T20:54:29.733Z,26.40
2022-08-03T20:57:04.233Z,26.50
2022-08-03T20:59:46.806Z,26.40
2022-08-03T21:02:19.313Z,26.30
2022-08-03T21:04:57.849Z,26.30
2022-08-03T21:08:04.336Z,26.30
2022-08-03T21:10:18.323Z,26.30
2022-08-03T21:12:51.807Z,26.20
2022-08-03T21:13:01.805Z,29.20
2022-08-03T21:16:06.756Z,26.10
2022-08-03T21:18:14.438Z,25.90
2022-08-03T21:20:44.782Z,25.90
2022-08-03T21:23:34.996Z,25.90
2022-08-03T21:26:04.257Z,25.80
2022-08-03T21:28:32.532Z,25.90
2022-08-03T21:31:00.825Z,25.80
2022-08-03T21:33:30.710Z,25.70
2022-08-03T21:35:59.338Z,25.70
2022-08-03T21:38:30.310Z,25.70
2022-08-03T21:40:58.727Z,25.90
2022-08-03T21:43:28.222Z,26.00
2022-08-03T21:45:59.812Z,26.00
2022-08-03T21:48:29.033Z,25.80
2022-08-03T21:50:57.377Z,25.70
2022-08-03T21:54:02.219Z,25.70
2022-08-03T21:56:20.154Z,25.80
2022-08-03T21:58:52.017Z,25.80
2022-08-03T22:01:22.966Z,25.70
2022-08-03T22:03:53.850Z,25.50
2022-08-03T22:06:22.514Z,25.50
2022-08-03T22:08:55.747Z,25.50
2022-08-03T22:11:23.780Z,25.30
2022-08-03T22:13:53.453Z,25.30
2022-08-03T22:16:21.587Z,25.30
2022-08-03T22:18:49.766Z,25.20
2022-08-03T22:21:27.984Z,25.20
2022-08-03T22:24:06.755Z,25.00
2022-08-03T22:26:40.760Z,25.00
2022-08-03T22:29:10.470Z,25.10
2022-08-03T22:31:58.897Z,25.00
2022-08-03T22:34:28.208Z,25.00
2022-08-03T22:37:01.693Z,25.00
2022-08-03T22:39:31.011Z,25.00
2022-08-03T22:41:59.712Z,25.00
2022-08-03T22:44:29.221Z,24.90
2022-08-03T22:46:57.282Z,24.80
2022-08-03T22:49:25.564Z,24.80
2022-08-03T22:51:54.821Z,24.80
2022-08-03T22:54:23.861Z,24.80
2022-08-03T22:56:52.608Z,24.70
2022-08-03T22:59:41.437Z,24.80
2022-08-03T23:02:20.264Z,24.90
2022-08-03T23:04:52.068Z,24.80
2022-08-03T23:07:28.495Z,24.80
2022-08-03T23:09:58.320Z,24.80
2022-08-03T23:12:29.496Z,25.00
2022-08-03T23:15:01.202Z,24.90
2022-08-03T23:17:32.141Z,24.90
2022-08-03T23:20:03.726Z,24.60
2022-08-03T23:22:31.796Z,24.70
2022-08-03T23:25:03.531Z,24.70
2022-08-03T23:27:33.242Z,24.60
2022-08-03T23:30:02.781Z,24.60
2022-08-03T23:32:32.330Z,24.50
2022-08-03T23:35:21.297Z,24.40
2022-08-03T23:38:21.585Z,24.40
2022-08-03T23:40:38.531Z,24.60
2022-08-03T23:43:06.849Z,24.50
2022-08-03T23:45:40.362Z,24.30
2022-08-03T23:48:09.728Z,24.30
2022-08-03T23:50:45.864Z,24.20
2022-08-03T23:53:19.600Z,24.20
2022-08-03T23:56:04.712Z,24.30
2022-08-03T23:59:01.187Z,24.50
